createdAt,value
2019-02-08T00:00:22.959Z,95.495605
2019-02-08T00:01:32.569Z,95.599365
2019-02-08T00:02:42.101Z,95.599365
2019-02-08T00:03:51.630Z,95.599365
2019-02-08T00:05:01.202Z,95.703125
2019-02-08T00:06:10.713Z,95.703125
2019-02-08T00:07:20.283Z,95.806885
2019-02-08T00:08:29.846Z,95.703125
2019-02-08T00:09:39.391Z,95.806885
2019-02-08T00:10:48.998Z,95.910645
2019-02-08T00:11:58.565Z,95.910645
2019-02-08T00:13:08.107Z,96.014404
2019-02-08T00:14:17.699Z,96.057129
2019-02-08T00:15:27.236Z,96.057129
2019-02-08T00:16:36.783Z,96.160889
2019-02-08T00:17:46.315Z,96.118164
2019-02-08T00:18:55.883Z,96.160889
2019-02-08T00:20:05.468Z,96.014404
2019-02-08T00:21:15.033Z,95.910645
2019-02-08T00:22:24.606Z,95.703125
2019-02-08T00:23:34.195Z,95.599365
2019-02-08T00:24:43.756Z,95.599365
2019-02-08T00:25:53.321Z,95.599365
2019-02-08T00:27:02.913Z,95.703125
2019-02-08T00:28:12.511Z,95.806885
2019-02-08T00:29:23.099Z,95.806885
2019-02-08T00:30:32.682Z,95.806885
2019-02-08T00:31:42.268Z,95.849609
2019-02-08T00:32:51.847Z,95.953369
2019-02-08T00:34:01.430Z,95.953369
2019-02-08T00:35:11.027Z,95.953369
2019-02-08T00:36:20.510Z,95.953369
2019-02-08T00:37:30.063Z,95.953369
2019-02-08T00:38:39.717Z,96.057129
2019-02-08T00:39:49.466Z,96.057129
2019-02-08T00:40:58.834Z,96.057129
2019-02-08T00:42:08.402Z,96.160889
2019-02-08T00:43:18.964Z,96.264648
2019-02-08T00:44:28.525Z,96.264648
2019-02-08T00:45:38.073Z,96.264648
2019-02-08T00:46:47.610Z,96.264648
2019-02-08T00:47:57.167Z,96.264648
2019-02-08T00:49:06.756Z,96.374512
2019-02-08T00:50:16.294Z,96.264648
2019-02-08T00:51:25.831Z,96.264648
2019-02-08T00:52:35.363Z,96.264648
2019-02-08T00:53:44.894Z,96.160889
2019-02-08T00:54:54.449Z,96.264648
2019-02-08T00:56:03.985Z,96.478271
2019-02-08T00:57:13.528Z,96.478271
2019-02-08T00:58:23.085Z,96.478271
2019-02-08T00:59:32.617Z,96.374512
2019-02-08T01:00:42.197Z,96.160889
2019-02-08T01:01:51.751Z,96.057129
2019-02-08T01:03:01.306Z,95.849609
2019-02-08T01:04:10.811Z,95.74585
2019-02-08T01:05:20.448Z,95.74585
2019-02-08T01:06:29.955Z,95.74585
2019-02-08T01:07:39.542Z,95.788574
2019-02-08T01:08:49.108Z,95.953369
2019-02-08T01:09:58.633Z,96.057129
2019-02-08T01:11:08.179Z,96.057129
2019-02-08T01:12:17.741Z,96.057129
2019-02-08T01:13:28.479Z,96.057129
2019-02-08T01:14:36.778Z,95.953369
2019-02-08T01:15:46.345Z,95.953369
2019-02-08T01:16:55.900Z,95.849609
2019-02-08T01:18:05.466Z,95.64209
2019-02-08T01:19:14.979Z,95.53833
2019-02-08T01:20:24.524Z,95.330811
2019-02-08T01:21:34.063Z,95.227051
2019-02-08T01:22:43.592Z,95.227051
2019-02-08T01:23:53.159Z,95.227051
2019-02-08T01:25:02.681Z,95.227051
2019-02-08T01:26:12.233Z,95.019531
2019-02-08T01:27:21.760Z,95.019531
2019-02-08T01:28:31.304Z,95.019531
2019-02-08T01:29:40.860Z,95.019531
2019-02-08T01:30:50.421Z,94.915771
2019-02-08T01:31:59.964Z,94.805908
2019-02-08T01:33:09.506Z,94.915771
2019-02-08T01:34:19.064Z,94.915771
2019-02-08T01:35:28.651Z,94.915771
2019-02-08T01:36:38.190Z,95.019531
2019-02-08T01:37:47.713Z,95.123291
2019-02-08T01:38:57.266Z,95.227051
2019-02-08T01:40:06.865Z,95.330811
2019-02-08T01:41:16.370Z,95.227051
2019-02-08T01:42:25.912Z,95.227051
2019-02-08T01:43:35.500Z,95.123291
2019-02-08T01:44:45.031Z,95.227051
2019-02-08T01:45:54.579Z,95.019531
2019-02-08T01:47:04.114Z,94.915771
2019-02-08T01:48:13.702Z,94.805908
2019-02-08T01:49:23.290Z,94.805908
2019-02-08T01:50:32.854Z,94.702148
2019-02-08T01:51:43.381Z,94.598389
2019-02-08T01:52:52.912Z,94.598389
2019-02-08T01:54:02.446Z,94.598389
2019-02-08T01:55:11.978Z,94.598389
2019-02-08T01:56:21.533Z,94.598389
2019-02-08T01:57:31.057Z,94.598389
2019-02-08T01:58:40.620Z,94.598389
2019-02-08T01:59:50.157Z,94.494629
2019-02-08T02:00:59.704Z,94.390869
2019-02-08T02:02:09.236Z,94.390869
2019-02-08T02:03:18.742Z,94.390869
2019-02-08T02:04:28.259Z,94.390869
2019-02-08T02:05:37.801Z,94.390869
2019-02-08T02:06:47.306Z,94.390869
2019-02-08T02:07:56.846Z,94.390869
2019-02-08T02:09:06.364Z,94.537354
2019-02-08T02:10:15.921Z,94.641113
2019-02-08T02:11:25.451Z,94.750977
2019-02-08T02:12:34.973Z,94.750977
2019-02-08T02:13:44.484Z,94.750977
2019-02-08T02:14:53.994Z,94.750977
2019-02-08T02:16:04.151Z,94.854736
2019-02-08T02:17:13.056Z,94.854736
2019-02-08T02:18:22.579Z,94.750977
2019-02-08T02:19:32.114Z,94.750977
2019-02-08T02:20:41.659Z,94.854736
2019-02-08T02:21:51.197Z,94.750977
2019-02-08T02:23:00.706Z,94.750977
2019-02-08T02:24:10.225Z,94.641113
2019-02-08T02:25:19.747Z,94.433594
2019-02-08T02:26:29.319Z,94.433594
2019-02-08T02:27:38.859Z,94.433594
2019-02-08T02:28:48.389Z,94.537354
2019-02-08T02:29:57.911Z,94.537354
2019-02-08T02:31:07.492Z,94.641113
2019-02-08T02:32:16.994Z,94.641113
2019-02-08T02:33:26.524Z,94.793701
2019-02-08T02:34:36.026Z,94.793701
2019-02-08T02:35:45.561Z,94.897461
2019-02-08T02:36:55.070Z,95.001221
2019-02-08T02:38:04.604Z,95.20874
2019-02-08T02:39:14.159Z,95.20874
2019-02-08T02:40:23.681Z,95.20874
2019-02-08T02:41:33.223Z,95.3125
2019-02-08T02:42:42.744Z,95.41626
2019-02-08T02:43:52.283Z,95.41626
2019-02-08T02:45:01.816Z,95.41626
2019-02-08T02:46:11.335Z,95.52002
2019-02-08T02:47:20.860Z,95.52002
2019-02-08T02:48:31.367Z,95.458984
2019-02-08T02:49:40.907Z,95.562744
2019-02-08T02:50:50.442Z,95.562744
2019-02-08T02:51:59.978Z,95.562744
2019-02-08T02:53:09.495Z,95.666504
2019-02-08T02:54:19.019Z,95.666504
2019-02-08T02:55:28.582Z,95.666504
2019-02-08T02:56:38.110Z,95.776367
2019-02-08T02:57:47.651Z,95.880127
2019-02-08T02:58:57.180Z,95.880127
2019-02-08T03:00:06.689Z,95.983887
2019-02-08T03:01:16.249Z,96.087646
2019-02-08T03:02:25.801Z,96.087646
2019-02-08T03:03:35.309Z,96.087646
2019-02-08T03:04:44.873Z,95.983887
2019-02-08T03:05:54.463Z,95.983887
2019-02-08T03:07:04.003Z,95.983887
2019-02-08T03:08:13.520Z,95.880127
2019-02-08T03:09:23.047Z,95.880127
2019-02-08T03:10:32.580Z,95.880127
2019-02-08T03:11:42.183Z,95.776367
2019-02-08T03:12:51.732Z,95.880127
2019-02-08T03:14:01.250Z,95.880127
2019-02-08T03:15:10.789Z,95.776367
2019-02-08T03:16:20.318Z,95.776367
2019-02-08T03:17:29.826Z,95.776367
2019-02-08T03:18:39.354Z,95.666504
2019-02-08T03:19:48.893Z,95.458984
2019-02-08T03:20:58.426Z,95.043945
2019-02-08T03:22:07.953Z,94.836426
2019-02-08T03:23:17.507Z,94.580078
2019-02-08T03:24:27.020Z,94.372559
2019-02-08T03:25:36.539Z,94.372559
2019-02-08T03:26:46.079Z,94.268799
2019-02-08T03:27:55.613Z,94.061279
2019-02-08T03:29:05.155Z,93.85376
2019-02-08T03:30:14.676Z,93.64624
2019-02-08T03:31:24.233Z,93.64624
2019-02-08T03:32:33.745Z,93.54248
2019-02-08T03:33:43.272Z,93.438721
2019-02-08T03:34:52.794Z,93.286133
2019-02-08T03:36:02.336Z,92.974854
2019-02-08T03:37:11.881Z,92.871094
2019-02-08T03:38:21.411Z,92.767334
2019-02-08T03:39:30.944Z,92.871094
2019-02-08T03:40:40.494Z,92.767334
2019-02-08T03:41:50.067Z,92.767334
2019-02-08T03:42:59.600Z,93.078613
2019-02-08T03:44:09.142Z,93.078613
2019-02-08T03:45:18.678Z,92.974854
2019-02-08T03:46:28.230Z,92.974854
2019-02-08T03:47:37.742Z,92.871094
2019-02-08T03:48:47.314Z,92.767334
2019-02-08T03:49:56.821Z,92.767334
2019-02-08T03:51:06.370Z,92.767334
2019-02-08T03:52:15.909Z,92.871094
2019-02-08T03:53:25.435Z,92.767334
2019-02-08T03:54:34.971Z,92.663574
2019-02-08T03:55:44.499Z,92.767334
2019-02-08T03:56:54.078Z,92.767334
2019-02-08T03:58:03.593Z,92.663574
2019-02-08T03:59:13.133Z,92.559814
2019-02-08T04:00:22.703Z,92.767334
2019-02-08T04:01:32.257Z,92.559814
2019-02-08T04:02:41.789Z,92.663574
2019-02-08T04:03:51.322Z,92.663574
2019-02-08T04:05:00.875Z,92.559814
2019-02-08T04:06:10.430Z,92.767334
2019-02-08T04:07:19.953Z,92.767334
2019-02-08T04:08:29.481Z,92.871094
2019-02-08T04:09:39.051Z,92.871094
2019-02-08T04:10:48.571Z,92.871094
2019-02-08T04:11:58.157Z,92.974854
2019-02-08T04:13:07.657Z,92.974854
2019-02-08T04:14:17.205Z,92.871094
2019-02-08T04:15:26.753Z,92.767334
2019-02-08T04:16:36.281Z,92.767334
2019-02-08T04:17:45.851Z,92.559814
2019-02-08T04:18:55.386Z,92.559814
2019-02-08T04:20:04.929Z,93.078613
2019-02-08T04:21:14.457Z,92.974854
2019-02-08T04:22:23.985Z,93.121338
2019-02-08T04:23:34.492Z,93.121338
2019-02-08T04:24:44.032Z,93.017578
2019-02-08T04:25:53.565Z,93.121338
2019-02-08T04:27:03.155Z,93.328857
2019-02-08T04:28:12.685Z,93.438721
2019-02-08T04:29:22.205Z,93.64624
2019-02-08T04:30:31.789Z,93.64624
2019-02-08T04:31:42.484Z,93.54248
2019-02-08T04:32:50.999Z,93.54248
2019-02-08T04:34:00.532Z,93.54248
2019-02-08T04:35:10.066Z,93.438721
2019-02-08T04:36:19.606Z,93.54248
2019-02-08T04:37:29.156Z,93.54248
2019-02-08T04:38:38.686Z,93.54248
2019-02-08T04:39:48.230Z,93.54248
2019-02-08T04:40:57.867Z,93.54248
2019-02-08T04:42:08.497Z,93.438721
2019-02-08T04:43:18.071Z,93.438721
2019-02-08T04:44:27.604Z,93.64624
2019-02-08T04:45:37.131Z,93.64624
2019-02-08T04:46:46.670Z,93.64624
2019-02-08T04:47:56.210Z,93.75
2019-02-08T04:49:05.758Z,93.75
2019-02-08T04:50:15.290Z,93.75
2019-02-08T04:51:25.770Z,93.75
2019-02-08T04:52:34.449Z,93.64624
2019-02-08T04:53:43.981Z,93.896484
2019-02-08T04:54:53.525Z,94.104004
2019-02-08T04:56:03.049Z,94.207764
2019-02-08T04:57:12.638Z,94.311523
2019-02-08T04:58:22.158Z,94.415283
2019-02-08T04:59:31.717Z,94.519043
2019-02-08T05:00:41.244Z,94.567871
2019-02-08T05:01:50.810Z,94.567871
2019-02-08T05:03:00.342Z,94.567871
2019-02-08T05:04:09.856Z,94.775391
2019-02-08T05:05:19.399Z,94.87915
2019-02-08T05:06:28.968Z,94.98291
2019-02-08T05:07:38.501Z,94.98291
2019-02-08T05:08:48.039Z,95.19043
2019-02-08T05:09:57.601Z,95.294189
2019-02-08T05:11:07.142Z,95.397949
2019-02-08T05:12:16.709Z,95.501709
2019-02-08T05:13:26.304Z,95.501709
2019-02-08T05:14:35.810Z,95.501709
2019-02-08T05:15:45.309Z,95.501709
2019-02-08T05:16:54.848Z,95.611572
2019-02-08T05:18:04.378Z,95.715332
2019-02-08T05:19:13.903Z,95.715332
2019-02-08T05:20:23.429Z,95.715332
2019-02-08T05:21:32.965Z,95.715332
2019-02-08T05:22:42.495Z,95.715332
2019-02-08T05:23:52.035Z,95.611572
2019-02-08T05:25:01.553Z,95.611572
2019-02-08T05:26:11.082Z,95.611572
2019-02-08T05:27:20.628Z,95.654297
2019-02-08T05:28:30.157Z,95.550537
2019-02-08T05:29:39.669Z,95.550537
2019-02-08T05:30:49.190Z,95.758057
2019-02-08T05:31:58.756Z,95.965576
2019-02-08T05:33:08.273Z,96.173096
2019-02-08T05:34:17.796Z,96.490479
2019-02-08T05:35:27.324Z,96.276855
2019-02-08T05:36:37.824Z,95.965576
2019-02-08T05:37:47.383Z,95.758057
2019-02-08T05:38:56.897Z,95.654297
2019-02-08T05:40:06.430Z,95.336914
2019-02-08T05:41:15.995Z,95.172119
2019-02-08T05:42:25.565Z,95.172119
2019-02-08T05:43:35.081Z,95.172119
2019-02-08T05:44:44.611Z,95.172119
2019-02-08T05:45:54.144Z,95.172119
2019-02-08T05:47:03.703Z,95.275879
2019-02-08T05:48:13.238Z,95.324707
2019-02-08T05:49:22.770Z,95.324707
2019-02-08T05:50:32.284Z,95.428467
2019-02-08T05:51:41.816Z,95.428467
2019-02-08T05:52:51.423Z,95.532227
2019-02-08T05:54:00.951Z,95.635986
2019-02-08T05:55:10.490Z,95.635986
2019-02-08T05:56:20.021Z,95.635986
2019-02-08T05:57:29.570Z,95.678711
2019-02-08T05:58:39.124Z,95.678711
2019-02-08T05:59:48.704Z,95.678711
2019-02-08T06:00:58.227Z,95.678711
2019-02-08T06:02:07.803Z,95.678711
2019-02-08T06:03:17.399Z,95.782471
2019-02-08T06:04:26.953Z,95.782471
2019-02-08T06:05:36.523Z,95.782471
2019-02-08T06:06:46.052Z,95.88623
2019-02-08T06:07:55.643Z,95.88623
2019-02-08T06:09:05.165Z,95.928955
2019-02-08T06:10:14.715Z,95.928955
2019-02-08T06:11:24.274Z,96.038818
2019-02-08T06:12:33.799Z,96.142578
2019-02-08T06:13:43.353Z,96.246338
2019-02-08T06:14:52.879Z,96.350098
2019-02-08T06:16:02.451Z,96.557617
2019-02-08T06:17:12.009Z,96.661377
2019-02-08T06:18:21.554Z,96.661377
2019-02-08T06:19:31.145Z,96.661377
2019-02-08T06:20:40.654Z,96.557617
2019-02-08T06:21:50.216Z,96.557617
2019-02-08T06:22:59.808Z,96.453857
2019-02-08T06:24:09.443Z,96.557617
2019-02-08T06:25:18.963Z,96.453857
2019-02-08T06:26:28.464Z,96.453857
2019-02-08T06:27:38.018Z,96.350098
2019-02-08T06:28:47.550Z,96.453857
2019-02-08T06:29:57.128Z,96.453857
2019-02-08T06:31:06.719Z,96.453857
2019-02-08T06:32:16.267Z,96.453857
2019-02-08T06:33:25.780Z,96.557617
2019-02-08T06:34:35.334Z,96.453857
2019-02-08T06:35:45.875Z,96.453857
2019-02-08T06:36:55.445Z,96.350098
2019-02-08T06:38:05.043Z,96.350098
2019-02-08T06:39:14.586Z,96.246338
2019-02-08T06:40:24.171Z,96.142578
2019-02-08T06:41:33.743Z,96.246338
2019-02-08T06:42:43.278Z,96.142578
2019-02-08T06:43:52.837Z,95.928955
2019-02-08T06:45:02.418Z,95.928955
2019-02-08T06:46:11.970Z,95.928955
2019-02-08T06:47:21.505Z,95.928955
2019-02-08T06:48:31.047Z,95.825195
2019-02-08T06:49:40.579Z,95.721436
2019-02-08T06:50:50.140Z,95.513916
2019-02-08T06:51:59.675Z,95.513916
2019-02-08T06:53:09.193Z,95.410156
2019-02-08T06:54:18.787Z,95.513916
2019-02-08T06:55:28.322Z,95.410156
2019-02-08T06:56:37.890Z,95.367432
2019-02-08T06:57:47.434Z,95.257568
2019-02-08T06:58:56.946Z,95.153809
2019-02-08T07:00:06.445Z,94.842529
2019-02-08T07:01:15.980Z,94.696045
2019-02-08T07:02:25.551Z,94.488525
2019-02-08T07:03:35.057Z,94.274902
2019-02-08T07:04:44.604Z,94.067383
2019-02-08T07:05:54.161Z,93.756104
2019-02-08T07:07:03.707Z,93.395996
2019-02-08T07:08:13.246Z,93.188477
2019-02-08T07:09:22.751Z,92.877197
2019-02-08T07:10:32.263Z,92.663574
2019-02-08T07:11:41.845Z,92.730713
2019-02-08T07:12:51.410Z,92.205811
2019-02-08T07:14:00.971Z,91.894531
2019-02-08T07:15:10.481Z,91.894531
2019-02-08T07:16:20.000Z,91.998291
2019-02-08T07:17:29.524Z,91.748047
2019-02-08T07:18:39.070Z,91.430664
2019-02-08T07:19:48.579Z,90.911865
2019-02-08T07:20:58.121Z,90.808105
2019-02-08T07:22:07.667Z,90.808105
2019-02-08T07:23:17.187Z,90.808105
2019-02-08T07:24:26.701Z,90.600586
2019-02-08T07:25:36.239Z,90.765381
2019-02-08T07:26:45.800Z,90.350342
2019-02-08T07:27:55.325Z,90.350342
2019-02-08T07:29:04.837Z,89.892578
2019-02-08T07:30:14.372Z,89.263916
2019-02-08T07:31:23.943Z,88.079834
2019-02-08T07:32:33.759Z,87.866211
2019-02-08T07:33:43.288Z,87.408447
2019-02-08T07:34:52.803Z,87.200928
2019-02-08T07:36:02.361Z,86.328125
2019-02-08T07:37:11.899Z,85.913086
2019-02-08T07:38:21.388Z,85.601807
2019-02-08T07:39:30.909Z,85.040283
2019-02-08T07:40:40.441Z,84.521484
2019-02-08T07:41:49.978Z,84.002686
2019-02-08T07:42:59.497Z,84.313965
2019-02-08T07:44:09.032Z,83.648682
2019-02-08T07:45:18.560Z,83.233643
2019-02-08T07:46:28.098Z,83.544922
2019-02-08T07:47:37.611Z,83.752441
2019-02-08T07:48:47.153Z,84.0271
2019-02-08T07:49:56.666Z,83.92334
2019-02-08T07:51:06.199Z,82.739258
2019-02-08T07:52:15.732Z,82.012939
2019-02-08T07:53:25.235Z,81.768799
2019-02-08T07:54:34.767Z,81.35376
2019-02-08T07:55:44.303Z,81.25
2019-02-08T07:56:53.838Z,81.14624
2019-02-08T07:58:03.367Z,79.968262
2019-02-08T07:59:12.881Z,80.279541
2019-02-08T08:00:22.402Z,79.547119
2019-02-08T08:01:31.930Z,79.302979
2019-02-08T08:02:41.479Z,78.68042
2019-02-08T08:03:50.996Z,78.161621
2019-02-08T08:05:01.497Z,78.68042
2019-02-08T08:06:11.073Z,79.614258
2019-02-08T08:07:20.587Z,78.57666
2019-02-08T08:08:30.112Z,77.612305
2019-02-08T08:09:39.629Z,78.338623
2019-02-08T08:10:49.143Z,77.197266
2019-02-08T08:11:58.665Z,76.849365
2019-02-08T08:13:08.181Z,76.470947
2019-02-08T08:14:17.707Z,76.953125
2019-02-08T08:15:27.235Z,77.575684
2019-02-08T08:16:36.778Z,78.057861
2019-02-08T08:17:46.377Z,76.501465
2019-02-08T08:18:55.887Z,75.360107
2019-02-08T08:20:05.394Z,74.810791
2019-02-08T08:21:14.915Z,73.876953
2019-02-08T08:22:24.462Z,75.738525
2019-02-08T08:23:33.959Z,74.359131
2019-02-08T08:24:43.502Z,72.497559
2019-02-08T08:25:53.003Z,74.121094
2019-02-08T08:27:02.539Z,72.979736
2019-02-08T08:28:12.050Z,71.600342
2019-02-08T08:29:21.593Z,72.015381
2019-02-08T08:30:31.108Z,71.875
2019-02-08T08:31:40.640Z,70.947266
2019-02-08T08:32:50.149Z,70.709229
2019-02-08T08:33:59.685Z,68.774414
2019-02-08T08:35:09.199Z,69.708252
2019-02-08T08:36:18.718Z,69.671631
2019-02-08T08:37:28.287Z,68.432617
2019-02-08T08:38:37.798Z,68.743896
2019-02-08T08:39:47.325Z,68.951416
2019-02-08T08:40:56.906Z,67.401123
2019-02-08T08:42:06.459Z,68.743896
2019-02-08T08:43:15.953Z,69.433594
2019-02-08T08:44:25.508Z,67.437744
2019-02-08T08:45:35.058Z,67.028809
2019-02-08T08:46:44.588Z,67.132568
2019-02-08T08:47:54.106Z,67.132568
2019-02-08T08:49:03.620Z,66.271973
2019-02-08T08:50:13.150Z,65.551758
2019-02-08T08:51:22.716Z,65.344238
2019-02-08T08:52:32.254Z,65.52124
2019-02-08T08:53:41.755Z,64.282227
2019-02-08T08:54:51.300Z,64.593506
2019-02-08T08:56:00.800Z,64.697266
2019-02-08T08:57:10.324Z,65.106201
2019-02-08T08:58:19.848Z,65.209961
2019-02-08T08:59:29.511Z,66.345215
2019-02-08T09:00:38.890Z,65.386963
2019-02-08T09:01:48.446Z,63.116455
2019-02-08T09:02:57.965Z,64.147949
2019-02-08T09:04:07.476Z,64.019775
2019-02-08T09:05:16.997Z,63.397217
2019-02-08T09:06:26.545Z,62.780762
2019-02-08T09:07:36.080Z,63.397217
2019-02-08T09:08:45.599Z,61.883545
2019-02-08T09:09:55.115Z,63.946533
2019-02-08T09:11:04.627Z,62.084961
2019-02-08T09:12:14.156Z,63.293457
2019-02-08T09:13:23.669Z,62.084961
2019-02-08T09:14:33.177Z,62.677002
2019-02-08T09:15:42.690Z,63.061523
2019-02-08T09:16:52.224Z,60.644531
2019-02-08T09:18:01.729Z,62.011719
2019-02-08T09:19:11.234Z,62.915039
2019-02-08T09:20:20.760Z,62.060547
2019-02-08T09:21:30.267Z,61.309814
2019-02-08T09:22:39.785Z,59.631348
2019-02-08T09:23:49.309Z,58.47168
2019-02-08T09:24:58.836Z,59.680176
2019-02-08T09:26:08.364Z,57.727051
2019-02-08T09:27:17.906Z,58.520508
2019-02-08T09:28:27.417Z,57.287598
2019-02-08T09:29:36.955Z,56.671143
2019-02-08T09:30:47.459Z,56.695557
2019-02-08T09:31:56.974Z,57.287598
2019-02-08T09:33:06.499Z,59.094238
2019-02-08T09:34:16.033Z,61.676025
2019-02-08T09:35:25.539Z,59.790039
2019-02-08T09:36:35.058Z,58.935547
2019-02-08T09:37:44.589Z,58.190918
2019-02-08T09:38:54.109Z,57.23877
2019-02-08T09:40:03.629Z,58.062744
2019-02-08T09:41:13.149Z,56.903076
2019-02-08T09:42:22.708Z,55.255127
2019-02-08T09:43:32.225Z,55.334473
2019-02-08T09:44:41.736Z,54.815674
2019-02-08T09:45:51.262Z,54.815674
2019-02-08T09:47:00.758Z,54.89502
2019-02-08T09:48:10.304Z,55.303955
2019-02-08T09:49:19.803Z,54.46167
2019-02-08T09:50:29.342Z,53.741455
2019-02-08T09:51:38.852Z,54.302979
2019-02-08T09:52:49.398Z,54.095459
2019-02-08T09:53:58.935Z,53.686523
2019-02-08T09:55:08.456Z,53.405762
2019-02-08T09:56:17.971Z,54.614258
2019-02-08T09:57:27.535Z,53.918457
2019-02-08T09:58:37.071Z,55.950928
2019-02-08T09:59:46.589Z,56.12793
2019-02-08T10:00:56.117Z,54.150391
2019-02-08T10:02:05.628Z,50.98877
2019-02-08T10:03:15.147Z,52.91748
2019-02-08T10:04:24.672Z,51.940918
2019-02-08T10:05:34.172Z,53.918457
2019-02-08T10:06:43.684Z,54.614258
2019-02-08T10:07:53.241Z,53.35083
2019-02-08T10:09:02.773Z,52.197266
2019-02-08T10:10:12.310Z,50.756836
2019-02-08T10:11:21.829Z,52.301025
2019-02-08T10:12:31.385Z,50.244141
2019-02-08T10:13:40.915Z,52.11792
2019-02-08T10:14:50.414Z,51.660156
2019-02-08T10:15:59.930Z,51.043701
2019-02-08T10:17:09.465Z,51.147461
2019-02-08T10:18:19.014Z,50.65918
2019-02-08T10:19:28.538Z,51.116943
2019-02-08T10:20:38.069Z,52.270508
2019-02-08T10:21:47.588Z,53.35083
2019-02-08T10:22:57.126Z,51.78833
2019-02-08T10:24:06.646Z,50.45166
2019-02-08T10:25:16.176Z,51.147461
2019-02-08T10:26:25.692Z,50.201416
2019-02-08T10:27:35.196Z,49.810791
2019-02-08T10:28:44.715Z,50.915527
2019-02-08T10:29:54.231Z,49.273682
2019-02-08T10:31:03.760Z,50.714111
2019-02-08T10:32:13.286Z,49.768066
2019-02-08T10:33:22.815Z,48.376465
2019-02-08T10:34:32.805Z,49.346924
2019-02-08T10:35:41.863Z,50.67749
2019-02-08T10:36:51.388Z,51.275635
2019-02-08T10:38:00.928Z,50.817871
2019-02-08T10:39:10.442Z,50.177002
2019-02-08T10:40:19.954Z,50.280762
2019-02-08T10:41:30.521Z,49.432373
2019-02-08T10:42:39.005Z,48.944092
2019-02-08T10:43:48.548Z,49.456787
2019-02-08T10:44:58.047Z,48.327637
2019-02-08T10:46:07.567Z,48.022461
2019-02-08T10:47:17.998Z,48.88916
2019-02-08T10:48:26.624Z,49.42627
2019-02-08T10:49:36.140Z,49.938965
2019-02-08T10:50:45.669Z,50.164795
2019-02-08T10:51:55.176Z,50.061035
2019-02-08T10:53:04.700Z,50.476074
2019-02-08T10:54:14.278Z,50.65918
2019-02-08T10:55:23.829Z,51.226807
2019-02-08T10:56:33.353Z,50.152588
2019-02-08T10:57:42.882Z,47.381592
2019-02-08T10:58:52.419Z,46.948242
2019-02-08T11:00:01.991Z,48.034668
2019-02-08T11:01:11.504Z,47.625732
2019-02-08T11:02:21.149Z,47.131348
2019-02-08T11:03:30.641Z,47.033691
2019-02-08T11:04:40.147Z,46.722412
2019-02-08T11:05:49.674Z,47.052002
2019-02-08T11:06:59.218Z,46.563721
2019-02-08T11:08:08.739Z,46.606445
2019-02-08T11:09:19.256Z,47.55249
2019-02-08T11:10:28.803Z,49.914551
2019-02-08T11:11:38.348Z,49.023438
2019-02-08T11:12:47.866Z,47.259521
2019-02-08T11:13:57.400Z,46.826172
2019-02-08T11:15:06.922Z,46.905518
2019-02-08T11:16:16.447Z,44.836426
2019-02-08T11:17:25.981Z,45.428467
2019-02-08T11:18:35.532Z,44.512939
2019-02-08T11:19:45.075Z,43.896484
2019-02-08T11:20:54.586Z,44.226074
2019-02-08T11:22:04.155Z,43.914795
2019-02-08T11:23:13.708Z,44.53125
2019-02-08T11:24:23.256Z,43.792725
2019-02-08T11:25:32.787Z,43.97583
2019-02-08T11:26:42.300Z,43.97583
2019-02-08T11:27:51.809Z,43.469238
2019-02-08T11:29:01.373Z,42.773438
2019-02-08T11:30:10.892Z,43.182373
2019-02-08T11:31:20.414Z,43.341064
2019-02-08T11:32:42.762Z,43.95752
2019-02-08T11:33:40.450Z,44.366455
2019-02-08T11:34:50.035Z,44.799805
2019-02-08T11:35:59.518Z,44.122314
2019-02-08T11:37:09.041Z,46.069336
2019-02-08T11:38:19.541Z,46.563721
2019-02-08T11:39:29.081Z,44.573975
2019-02-08T11:40:38.622Z,44.775391
2019-02-08T11:41:48.139Z,44.140625
2019-02-08T11:42:57.657Z,43.218994
2019-02-08T11:44:07.191Z,43.017578
2019-02-08T11:45:16.702Z,43.017578
2019-02-08T11:46:26.212Z,43.95752
2019-02-08T11:47:35.727Z,44.18335
2019-02-08T11:48:45.254Z,45.184326
2019-02-08T11:49:54.793Z,45.025635
2019-02-08T11:51:04.318Z,46.252441
2019-02-08T11:52:13.836Z,45.617676
2019-02-08T11:53:23.344Z,45.471191
2019-02-08T11:54:32.912Z,44.958496
2019-02-08T11:55:42.437Z,45.654297
2019-02-08T11:56:51.969Z,45.147705
2019-02-08T11:58:01.484Z,44.488525
2019-02-08T11:59:11.047Z,43.035889
2019-02-08T12:00:20.575Z,43.322754
2019-02-08T12:01:30.108Z,41.687012
2019-02-08T12:02:40.620Z,42.529297
2019-02-08T12:03:49.150Z,41.912842
2019-02-08T12:04:58.669Z,42.321777
2019-02-08T12:06:08.196Z,43.035889
2019-02-08T12:07:17.736Z,41.687012
2019-02-08T12:08:27.306Z,41.894531
2019-02-08T12:09:36.833Z,41.687012
2019-02-08T12:10:46.345Z,41.973877
2019-02-08T12:11:55.865Z,40.85083
2019-02-08T12:13:05.390Z,40.545654
2019-02-08T12:14:14.922Z,40.222168
2019-02-08T12:15:24.444Z,40.441895
2019-02-08T12:16:33.983Z,40.789795
2019-02-08T12:17:43.495Z,42.956543
2019-02-08T12:18:53.043Z,42.321777
2019-02-08T12:20:03.556Z,42.285156
2019-02-08T12:21:13.069Z,41.241455
2019-02-08T12:22:22.600Z,41.815186
2019-02-08T12:23:32.163Z,39.245605
2019-02-08T12:24:41.693Z,38.208008
2019-02-08T12:25:51.204Z,37.884521
2019-02-08T12:27:00.720Z,37.561035
2019-02-08T12:28:10.241Z,37.646484
2019-02-08T12:29:19.786Z,37.866211
2019-02-08T12:30:29.282Z,38.153076
2019-02-08T12:31:38.791Z,37.121582
2019-02-08T12:32:49.298Z,37.512207
2019-02-08T12:33:58.821Z,37.103271
2019-02-08T12:35:08.356Z,35.375977
2019-02-08T12:36:17.887Z,35.394287
2019-02-08T12:37:27.401Z,36.61499
2019-02-08T12:38:37.004Z,35.394287
2019-02-08T12:39:46.531Z,36.712646
2019-02-08T12:40:56.043Z,35.26001
2019-02-08T12:42:05.565Z,34.429932
2019-02-08T12:43:15.113Z,34.259033
2019-02-08T12:44:24.693Z,34.747314
2019-02-08T12:45:34.208Z,34.429932
2019-02-08T12:46:43.740Z,34.936523
2019-02-08T12:47:53.259Z,36.376953
2019-02-08T12:49:02.798Z,36.071777
2019-02-08T12:50:12.320Z,35.644531
2019-02-08T12:51:21.829Z,35.137939
2019-02-08T12:52:31.405Z,34.918213
2019-02-08T12:53:40.961Z,34.936523
2019-02-08T12:54:50.517Z,34.954834
2019-02-08T12:56:00.022Z,35.699463
2019-02-08T12:57:09.528Z,36.206055
2019-02-08T12:58:19.032Z,36.730957
2019-02-08T12:59:28.584Z,36.730957
2019-02-08T13:00:38.110Z,37.768555
2019-02-08T13:01:47.622Z,38.006592
2019-02-08T13:02:57.132Z,37.579346
2019-02-08T13:04:06.660Z,37.768555
2019-02-08T13:05:16.197Z,37.322998
2019-02-08T13:06:25.700Z,36.309814
2019-02-08T13:07:35.235Z,36.61499
2019-02-08T13:08:44.758Z,35.882568
2019-02-08T13:09:54.348Z,36.169434
2019-02-08T13:11:03.857Z,34.747314
2019-02-08T13:12:14.433Z,34.460449
2019-02-08T13:13:22.956Z,36.529541
2019-02-08T13:14:32.504Z,36.340332
2019-02-08T13:15:42.030Z,36.462402
2019-02-08T13:16:51.542Z,36.340332